createdAt,value
2019-04-16T00:00:52.540Z,24.02
2019-04-16T00:03:23.072Z,23.80
2019-04-16T00:06:01.955Z,25.20
2019-04-16T00:08:44.283Z,24.70
2019-04-16T00:11:26.343Z,24.43
2019-04-16T00:13:56.461Z,24.98
2019-04-16T00:16:25.005Z,25.72
2019-04-16T00:18:58.158Z,23.95
2019-04-16T00:21:25.312Z,23.77
2019-04-16T00:24:07.373Z,25.50
2019-04-16T00:26:35.933Z,25.97
2019-04-16T00:29:04.866Z,23.83
2019-04-16T00:31:34.415Z,25.40
2019-04-16T00:34:04.302Z,26.42
2019-04-16T00:36:32.842Z,24.12
2019-04-16T00:39:01.495Z,24.60
2019-04-16T00:41:30.082Z,23.85
2019-04-16T00:43:58.549Z,24.90
2019-04-16T00:46:27.010Z,24.52
2019-04-16T00:48:55.739Z,24.30
2019-04-16T00:51:24.829Z,24.92
2019-04-16T00:53:53.307Z,24.70
2019-04-16T00:56:21.763Z,23.90
2019-04-16T00:58:52.235Z,24.40
2019-04-16T01:01:20.436Z,25.00
2019-04-16T01:03:48.894Z,24.40
2019-04-16T01:06:17.752Z,25.48
2019-04-16T01:08:54.354Z,23.52
2019-04-16T01:11:16.400Z,23.73
2019-04-16T01:13:45.242Z,24.57
2019-04-16T01:16:14.347Z,23.35
2019-04-16T01:18:42.843Z,24.52
2019-04-16T01:21:13.771Z,24.23
2019-04-16T01:23:41.500Z,25.00
2019-04-16T01:26:09.982Z,24.40
2019-04-16T01:28:42.990Z,24.07
2019-04-16T01:31:22.239Z,24.07
2019-04-16T01:33:55.208Z,26.17
2019-04-16T01:36:25.404Z,24.67
2019-04-16T01:39:13.409Z,24.05
2019-04-16T01:41:25.668Z,24.43
2019-04-16T01:43:54.267Z,23.95
2019-04-16T01:46:24.348Z,23.45
2019-04-16T01:48:52.792Z,22.95
2019-04-16T01:51:21.272Z,23.73
2019-04-16T01:53:52.356Z,24.40
2019-04-16T01:56:19.940Z,22.85
2019-04-16T01:58:48.393Z,23.12
2019-04-16T02:01:16.854Z,23.47
2019-04-16T02:03:48.632Z,23.02
2019-04-16T02:06:15.921Z,22.85
2019-04-16T02:08:44.477Z,23.25
2019-04-16T02:11:12.956Z,24.05
2019-04-16T02:13:45.811Z,23.20
2019-04-16T02:16:11.691Z,24.45
2019-04-16T02:18:40.154Z,22.07
2019-04-16T02:21:10.513Z,22.70
2019-04-16T02:23:38.809Z,24.10
2019-04-16T02:26:07.274Z,25.45
2019-04-16T02:28:35.980Z,23.52
2019-04-16T02:31:04.645Z,23.75
2019-04-16T02:33:33.103Z,22.85
2019-04-16T02:36:01.579Z,23.47
2019-04-16T02:38:30.145Z,22.90
2019-04-16T02:40:58.673Z,24.32
2019-04-16T02:43:27.260Z,22.50
2019-04-16T02:45:58.424Z,23.70
2019-04-16T02:48:25.983Z,23.20
2019-04-16T02:51:07.361Z,23.22
2019-04-16T02:53:43.017Z,23.25
2019-04-16T02:56:17.214Z,21.62
2019-04-16T02:58:47.870Z,22.32
2019-04-16T03:01:30.102Z,22.20
2019-04-16T03:04:00.282Z,22.10
2019-04-16T03:06:31.686Z,22.87
2019-04-16T03:08:59.031Z,23.80
2019-04-16T03:11:27.563Z,22.90
2019-04-16T03:13:59.234Z,23.00
2019-04-16T03:16:38.102Z,23.20
2019-04-16T03:19:09.007Z,22.93
2019-04-16T03:21:37.485Z,25.15
2019-04-16T03:24:09.350Z,23.42
2019-04-16T03:26:36.186Z,24.43
2019-04-16T03:29:04.911Z,22.95
2019-04-16T03:31:33.438Z,24.63
2019-04-16T03:34:02.443Z,24.32
2019-04-16T03:36:31.045Z,24.43
2019-04-16T03:38:59.493Z,24.50
2019-04-16T03:41:27.974Z,23.38
2019-04-16T03:43:56.421Z,23.77
2019-04-16T03:46:24.915Z,23.87
2019-04-16T03:48:56.066Z,24.15
2019-04-16T03:51:23.941Z,24.02
2019-04-16T03:53:52.440Z,25.02
2019-04-16T03:56:20.916Z,24.47
2019-04-16T03:58:49.645Z,24.57
2019-04-16T04:01:18.222Z,24.95
2019-04-16T04:03:46.765Z,25.65
2019-04-16T04:06:15.660Z,24.65
2019-04-16T04:08:47.896Z,24.05
2019-04-16T04:11:14.346Z,22.77
2019-04-16T04:13:42.889Z,24.07
2019-04-16T04:16:12.217Z,25.10
2019-04-16T04:18:43.131Z,25.70
2019-04-16T04:21:10.893Z,24.50
2019-04-16T04:23:39.410Z,23.32
2019-04-16T04:26:08.873Z,24.92
2019-04-16T04:28:38.142Z,24.12
2019-04-16T04:31:06.863Z,25.27
2019-04-16T04:33:40.736Z,25.15
2019-04-16T04:36:09.802Z,26.70
2019-04-16T04:38:39.668Z,26.25
2019-04-16T04:41:08.664Z,28.00
2019-04-16T04:43:37.257Z,25.55
2019-04-16T04:46:05.958Z,26.20
2019-04-16T04:48:34.515Z,25.00
2019-04-16T04:51:06.991Z,24.23
2019-04-16T04:53:33.346Z,24.77
2019-04-16T04:56:01.820Z,25.37
2019-04-16T04:58:33.750Z,24.23
2019-04-16T05:01:00.543Z,24.65
2019-04-16T05:03:47.451Z,25.25
2019-04-16T05:06:27.802Z,25.45
2019-04-16T05:08:57.614Z,24.52
2019-04-16T05:11:25.243Z,24.57
2019-04-16T05:13:56.435Z,24.63
2019-04-16T05:16:23.951Z,24.55
2019-04-16T05:18:52.444Z,23.80
2019-04-16T05:21:20.980Z,24.37
2019-04-16T05:23:49.488Z,23.90
2019-04-16T05:26:17.934Z,25.30
2019-04-16T05:28:46.694Z,23.67
2019-04-16T05:31:15.400Z,24.60
2019-04-16T05:33:43.863Z,23.67
2019-04-16T05:36:14.182Z,24.90
2019-04-16T05:38:42.608Z,23.60
2019-04-16T05:41:13.695Z,22.45
2019-04-16T05:43:41.241Z,25.00
2019-04-16T05:46:09.885Z,29.25
2019-04-16T05:48:38.585Z,22.77
2019-04-16T05:51:07.052Z,24.82
2019-04-16T05:53:37.307Z,24.18
2019-04-16T05:56:11.788Z,24.52
2019-04-16T05:58:40.376Z,23.70
2019-04-16T06:01:14.149Z,25.10
2019-04-16T06:03:43.031Z,23.98
2019-04-16T06:06:11.493Z,22.10
2019-04-16T06:08:41.541Z,22.22
2019-04-16T06:11:10.215Z,22.98
2019-04-16T06:13:44.541Z,23.02
2019-04-16T06:16:17.960Z,22.60
2019-04-16T06:18:48.056Z,22.17
2019-04-16T06:21:25.822Z,23.73
2019-04-16T06:24:10.683Z,22.77
2019-04-16T06:26:55.864Z,24.40
2019-04-16T06:29:35.117Z,21.30
2019-04-16T06:32:11.851Z,22.62
2019-04-16T06:34:42.435Z,21.93
2019-04-16T06:37:17.989Z,22.90
2019-04-16T06:39:46.968Z,22.93
2019-04-16T06:42:25.954Z,21.52
2019-04-16T06:44:56.085Z,22.77
2019-04-16T06:47:28.722Z,23.22
2019-04-16T06:49:58.887Z,21.77
2019-04-16T06:52:34.979Z,21.15
2019-04-16T06:55:07.785Z,21.80
2019-04-16T06:57:40.359Z,21.15
2019-04-16T07:00:09.859Z,21.77
2019-04-16T07:02:43.143Z,20.72
2019-04-16T07:05:11.893Z,20.88
2019-04-16T07:07:48.003Z,20.12
2019-04-16T07:10:18.202Z,20.35
2019-04-16T07:12:46.953Z,19.37
2019-04-16T07:15:15.911Z,20.48
2019-04-16T07:17:44.383Z,20.55
2019-04-16T07:20:14.161Z,21.37
2019-04-16T07:22:42.917Z,21.10
2019-04-16T07:25:11.492Z,21.33
2019-04-16T07:27:41.788Z,21.00
2019-04-16T07:30:14.296Z,21.42
2019-04-16T07:32:44.733Z,21.12
2019-04-16T07:35:17.405Z,20.35
2019-04-16T07:37:59.329Z,21.05
2019-04-16T07:40:35.779Z,21.27
2019-04-16T07:43:06.043Z,21.40
2019-04-16T07:45:36.276Z,21.07
2019-04-16T07:48:15.400Z,20.80
2019-04-16T07:51:04.870Z,20.80
2019-04-16T07:53:33.671Z,19.73
2019-04-16T07:56:03.789Z,20.92
2019-04-16T07:58:32.358Z,20.77
2019-04-16T08:01:00.849Z,21.60
2019-04-16T08:03:29.472Z,22.27
2019-04-16T08:05:57.982Z,20.88
2019-04-16T08:08:28.121Z,20.90
2019-04-16T08:10:56.667Z,21.37
2019-04-16T08:13:26.806Z,21.62
2019-04-16T08:15:57.251Z,21.30
2019-04-16T08:18:27.169Z,21.77
2019-04-16T08:21:02.008Z,20.75
2019-04-16T08:23:39.179Z,21.10
2019-04-16T08:26:13.815Z,20.27
2019-04-16T08:28:43.810Z,20.23
2019-04-16T08:31:16.654Z,20.37
2019-04-16T08:33:45.151Z,20.27
2019-04-16T08:36:13.725Z,20.15
2019-04-16T08:38:42.273Z,19.65
2019-04-16T08:41:12.739Z,21.65
2019-04-16T08:43:40.938Z,20.40
2019-04-16T08:46:11.290Z,20.32
2019-04-16T08:48:39.730Z,20.92
2019-04-16T08:51:08.310Z,20.20
2019-04-16T08:53:36.854Z,20.05
2019-04-16T08:56:05.391Z,20.85
2019-04-16T08:58:35.690Z,20.17
2019-04-16T09:01:05.655Z,20.20
2019-04-16T09:03:34.157Z,20.20
2019-04-16T09:06:04.446Z,19.98
2019-04-16T09:08:46.334Z,20.82
2019-04-16T09:11:23.224Z,20.40
2019-04-16T09:13:48.181Z,21.07
2019-04-16T09:16:16.905Z,20.85
2019-04-16T09:18:47.012Z,20.10
2019-04-16T09:21:15.562Z,20.68
2019-04-16T09:23:48.019Z,20.20
2019-04-16T09:26:23.605Z,20.00
2019-04-16T09:28:51.910Z,20.85
2019-04-16T09:31:34.197Z,20.68
2019-04-16T09:34:06.416Z,20.50
2019-04-16T09:36:52.567Z,21.62
2019-04-16T09:39:22.875Z,20.90
2019-04-16T09:41:51.998Z,20.92
2019-04-16T09:44:20.591Z,19.55
2019-04-16T09:46:51.452Z,21.42
2019-04-16T09:49:19.445Z,21.40
2019-04-16T09:51:50.418Z,21.97
2019-04-16T09:54:18.199Z,18.40
2019-04-16T09:56:46.799Z,21.30
2019-04-16T09:59:17.153Z,21.75
2019-04-16T10:01:50.064Z,21.15
2019-04-16T10:04:19.930Z,21.33
2019-04-16T10:06:48.491Z,22.05
2019-04-16T10:09:21.955Z,21.45
2019-04-16T10:11:47.589Z,21.50
2019-04-16T10:14:16.091Z,21.48
2019-04-16T10:16:44.908Z,22.15
2019-04-16T10:19:13.495Z,21.25
2019-04-16T10:21:42.151Z,22.45
2019-04-16T10:24:15.096Z,21.87
2019-04-16T10:26:45.314Z,21.93
2019-04-16T10:29:21.693Z,23.18
2019-04-16T10:31:50.252Z,21.97
2019-04-16T10:34:18.867Z,22.30
2019-04-16T10:36:51.811Z,23.22
2019-04-16T10:39:25.039Z,22.43
2019-04-16T10:41:58.235Z,22.50
2019-04-16T10:44:28.420Z,23.47
2019-04-16T10:46:58.623Z,21.82
2019-04-16T10:49:28.830Z,22.87
2019-04-16T10:51:59.274Z,22.95
2019-04-16T10:54:33.761Z,22.30
2019-04-16T10:57:03.885Z,21.70
2019-04-16T10:59:36.772Z,23.10
2019-04-16T11:02:23.413Z,22.63
2019-04-16T11:04:53.617Z,24.27
2019-04-16T11:07:23.775Z,24.12
2019-04-16T11:09:52.417Z,23.27
2019-04-16T11:12:20.887Z,22.50
2019-04-16T11:14:49.445Z,22.85
2019-04-16T11:17:19.761Z,22.98
2019-04-16T11:19:52.555Z,23.40
2019-04-16T11:22:18.578Z,22.10
2019-04-16T11:24:47.128Z,22.27
2019-04-16T11:27:15.650Z,25.55
2019-04-16T11:29:44.131Z,23.65
2019-04-16T11:32:14.256Z,22.95
2019-04-16T11:34:42.880Z,24.10
2019-04-16T11:37:11.539Z,24.70
2019-04-16T11:39:40.123Z,23.70
2019-04-16T11:42:08.638Z,24.82
2019-04-16T11:44:37.231Z,23.30
2019-04-16T11:47:06.960Z,24.18
2019-04-16T11:49:35.508Z,24.07
2019-04-16T11:52:04.560Z,23.87
2019-04-16T11:54:36.202Z,25.20
2019-04-16T11:57:05.047Z,24.15
2019-04-16T11:59:33.623Z,22.13
2019-04-16T12:02:11.194Z,23.85
2019-04-16T12:04:50.223Z,22.35
2019-04-16T12:07:26.257Z,23.40
2019-04-16T12:09:59.355Z,21.87
2019-04-16T12:12:29.493Z,22.90
2019-04-16T12:15:02.740Z,23.15
2019-04-16T12:17:36.479Z,22.15
2019-04-16T12:20:22.397Z,24.63
2019-04-16T12:22:52.493Z,24.35
2019-04-16T12:25:26.637Z,23.87
2019-04-16T12:28:06.522Z,22.95
2019-04-16T12:30:53.346Z,20.23
2019-04-16T12:33:26.307Z,22.48
2019-04-16T12:35:56.466Z,22.37
2019-04-16T12:38:38.526Z,23.67
2019-04-16T12:41:25.062Z,23.85
2019-04-16T12:43:55.565Z,21.17
2019-04-16T12:46:25.769Z,21.33
2019-04-16T12:49:11.161Z,20.82
2019-04-16T12:51:47.250Z,19.45
2019-04-16T12:54:25.257Z,20.35
2019-04-16T12:56:52.124Z,20.15
2019-04-16T12:59:34.080Z,17.52
2019-04-16T13:02:13.405Z,17.37
2019-04-16T13:04:54.512Z,15.78
2019-04-16T13:07:25.109Z,15.72
2019-04-16T13:10:07.224Z,16.17
2019-04-16T13:12:37.416Z,16.42
2019-04-16T13:15:08.876Z,15.55
2019-04-16T13:17:51.670Z,16.10
2019-04-16T13:20:31.209Z,16.17
2019-04-16T13:23:16.126Z,15.60
2019-04-16T13:26:03.403Z,15.45
2019-04-16T13:28:31.916Z,16.05
2019-04-16T13:31:00.490Z,15.50
2019-04-16T13:33:29.054Z,15.78
2019-04-16T13:35:57.573Z,14.83
2019-04-16T13:38:27.805Z,14.05
2019-04-16T13:40:56.326Z,14.80
2019-04-16T13:43:29.018Z,15.40
2019-04-16T13:45:58.233Z,15.88
2019-04-16T13:48:45.471Z,15.08
2019-04-16T13:51:18.767Z,16.35
2019-04-16T13:53:53.533Z,16.17
2019-04-16T13:56:23.639Z,15.10
2019-04-16T13:58:59.016Z,15.43
2019-04-16T14:01:33.956Z,16.57
2019-04-16T14:04:02.871Z,16.10
2019-04-16T14:06:31.639Z,16.95
2019-04-16T14:09:00.174Z,15.90
2019-04-16T14:11:28.708Z,17.37
2019-04-16T14:13:57.200Z,20.82
2019-04-16T14:16:25.668Z,20.15
2019-04-16T14:18:54.139Z,20.95
2019-04-16T14:21:22.623Z,22.52
2019-04-16T14:23:51.395Z,20.65
2019-04-16T14:26:20.174Z,21.93
2019-04-16T14:28:52.332Z,21.20
2019-04-16T14:31:19.997Z,22.58
2019-04-16T14:34:08.660Z,19.37
2019-04-16T14:36:37.180Z,22.00
2019-04-16T14:39:15.285Z,21.48
2019-04-16T14:41:48.950Z,22.87
2019-04-16T14:44:16.303Z,22.37
2019-04-16T14:46:44.792Z,22.60
2019-04-16T14:49:15.107Z,22.95
2019-04-16T14:51:43.689Z,22.02
2019-04-16T14:54:16.814Z,20.52
2019-04-16T14:56:46.953Z,22.13
2019-04-16T14:59:33.652Z,21.62
2019-04-16T15:01:54.825Z,19.27
2019-04-16T15:04:30.684Z,22.13
2019-04-16T15:07:03.880Z,21.80
2019-04-16T15:09:51.938Z,20.72
2019-04-16T15:12:22.347Z,21.70
2019-04-16T15:14:58.603Z,21.68
2019-04-16T15:17:37.665Z,22.30
2019-04-16T15:20:22.840Z,23.27
2019-04-16T15:23:11.014Z,22.90
2019-04-16T15:25:57.583Z,22.25
2019-04-16T15:28:40.047Z,21.87
2019-04-16T15:31:12.702Z,21.90
2019-04-16T15:33:51.418Z,23.07
2019-04-16T15:36:24.209Z,24.50
2019-04-16T15:39:12.429Z,24.07
2019-04-16T15:41:44.603Z,23.75
2019-04-16T15:44:14.724Z,25.15
2019-04-16T15:47:02.569Z,24.72
2019-04-16T15:49:55.597Z,24.02
2019-04-16T15:52:29.273Z,23.47
2019-04-16T15:55:02.161Z,24.15
2019-04-16T15:57:35.076Z,25.70
2019-04-16T16:00:09.397Z,25.32
2019-04-16T16:02:45.249Z,25.50
2019-04-16T16:05:19.945Z,25.40
2019-04-16T16:07:56.077Z,24.95
2019-04-16T16:10:24.577Z,24.95
2019-04-16T16:12:53.641Z,25.85
2019-04-16T16:15:22.847Z,25.57
2019-04-16T16:17:51.313Z,25.75
2019-04-16T16:20:19.911Z,25.43
2019-04-16T16:22:48.395Z,25.75
2019-04-16T16:25:16.864Z,25.27
2019-04-16T16:27:47.201Z,27.10
2019-04-16T16:30:15.957Z,26.97
2019-04-16T16:32:44.505Z,29.00
2019-04-16T16:35:17.020Z,27.62
2019-04-16T16:37:43.176Z,27.60
2019-04-16T16:40:14.786Z,27.58
2019-04-16T16:42:42.242Z,27.73
2019-04-16T16:45:10.948Z,28.15
2019-04-16T16:47:40.180Z,26.95
2019-04-16T16:50:11.662Z,27.00
2019-04-16T16:52:42.459Z,26.87
2019-04-16T16:55:13.118Z,27.30
2019-04-16T16:57:46.080Z,27.45
2019-04-16T17:00:23.870Z,26.77
2019-04-16T17:03:00.174Z,29.60
2019-04-16T17:05:35.869Z,28.95
2019-04-16T17:08:04.633Z,28.60
2019-04-16T17:10:33.176Z,25.95
2019-04-16T17:13:01.628Z,28.30
2019-04-16T17:15:30.103Z,28.42
2019-04-16T17:17:58.916Z,29.82
2019-04-16T17:20:27.413Z,30.08
2019-04-16T17:22:55.947Z,30.45
2019-04-16T17:25:36.123Z,28.70
2019-04-16T17:27:54.769Z,28.38
2019-04-16T17:30:23.375Z,26.65
2019-04-16T17:32:51.860Z,28.47
2019-04-16T17:35:20.332Z,28.90
2019-04-16T17:37:48.821Z,29.30
2019-04-16T17:40:27.759Z,29.23
2019-04-16T17:43:03.829Z,28.02
2019-04-16T17:45:34.376Z,28.23
2019-04-16T17:48:07.108Z,27.85
2019-04-16T17:50:39.602Z,31.65
2019-04-16T17:53:25.332Z,30.08
2019-04-16T17:55:58.458Z,29.87
2019-04-16T17:58:28.555Z,30.75
2019-04-16T18:00:58.741Z,29.42
2019-04-16T18:03:38.649Z,29.18
2019-04-16T18:06:11.778Z,29.00
2019-04-16T18:08:44.325Z,31.57
2019-04-16T18:11:32.715Z,28.67
2019-04-16T18:14:06.418Z,30.80
2019-04-16T18:16:37.378Z,29.07
2019-04-16T18:19:07.883Z,29.40
2019-04-16T18:21:38.074Z,31.15
2019-04-16T18:24:14.074Z,32.08
2019-04-16T18:27:00.505Z,32.95
2019-04-16T18:29:32.886Z,31.70
2019-04-16T18:32:05.313Z,31.97
2019-04-16T18:34:35.446Z,33.25
2019-04-16T18:37:20.855Z,33.63
2019-04-16T18:39:53.677Z,32.85
2019-04-16T18:42:29.427Z,33.53
2019-04-16T18:45:02.289Z,34.20
2019-04-16T18:47:35.084Z,34.15
2019-04-16T18:50:06.025Z,32.73
2019-04-16T18:52:36.595Z,36.15
2019-04-16T18:55:06.447Z,33.60
2019-04-16T18:57:35.600Z,36.73
2019-04-16T19:00:11.308Z,33.95
2019-04-16T19:02:42.160Z,33.00
2019-04-16T19:05:10.178Z,33.35
2019-04-16T19:07:38.634Z,31.68
2019-04-16T19:10:07.325Z,31.82
2019-04-16T19:12:36.173Z,37.45
2019-04-16T19:15:05.223Z,36.55
2019-04-16T19:17:33.802Z,35.38
2019-04-16T19:20:04.349Z,35.13
2019-04-16T19:22:32.458Z,35.25
2019-04-16T19:25:00.960Z,33.28
2019-04-16T19:27:30.805Z,34.70
2019-04-16T19:29:59.752Z,31.85
2019-04-16T19:32:28.863Z,28.27
2019-04-16T19:35:09.561Z,28.25
2019-04-16T19:37:29.808Z,28.23
2019-04-16T19:39:57.973Z,27.30
2019-04-16T19:42:28.742Z,24.50
2019-04-16T19:44:56.637Z,25.40
2019-04-16T19:47:26.468Z,23.62
2019-04-16T19:49:55.361Z,23.05
2019-04-16T19:52:24.017Z,22.58
2019-04-16T19:54:53.101Z,22.10
2019-04-16T19:57:21.765Z,22.10
2019-04-16T19:59:50.324Z,21.80
2019-04-16T20:02:18.785Z,22.52
2019-04-16T20:04:50.548Z,21.45
2019-04-16T20:07:17.474Z,21.17
2019-04-16T20:09:45.933Z,22.00
2019-04-16T20:12:14.528Z,20.55
2019-04-16T20:14:42.979Z,21.10
2019-04-16T20:17:11.432Z,21.80
2019-04-16T20:19:58.126Z,22.17
2019-04-16T20:22:31.310Z,22.55
2019-04-16T20:24:59.837Z,20.40
2019-04-16T20:27:28.935Z,22.73
2019-04-16T20:29:57.413Z,22.10
2019-04-16T20:32:27.589Z,22.48
2019-04-16T20:34:56.105Z,20.90
2019-04-16T20:37:24.950Z,21.93
2019-04-16T20:39:53.641Z,22.50
2019-04-16T20:42:22.222Z,22.52
2019-04-16T20:44:50.754Z,21.42
2019-04-16T20:47:19.280Z,21.90
2019-04-16T20:49:49.287Z,22.73
2019-04-16T20:52:17.949Z,22.25
2019-04-16T20:54:48.198Z,27.25
2019-04-16T20:57:16.658Z,25.32
2019-04-16T20:59:45.165Z,25.17
2019-04-16T21:02:13.625Z,21.73
2019-04-16T21:04:42.118Z,21.27
2019-04-16T21:07:14.350Z,20.75
2019-04-16T21:09:41.031Z,19.45
2019-04-16T21:12:12.578Z,20.95
2019-04-16T21:14:39.841Z,21.02
2019-04-16T21:17:08.412Z,20.15
2019-04-16T21:19:46.748Z,20.77
2019-04-16T21:22:16.421Z,22.20
2019-04-16T21:24:46.415Z,21.05
2019-04-16T21:27:14.950Z,22.40
2019-04-16T21:29:43.711Z,21.70
2019-04-16T21:32:23.013Z,22.22
2019-04-16T21:34:58.695Z,22.95
2019-04-16T21:37:28.254Z,23.07
2019-04-16T21:39:58.417Z,23.40
2019-04-16T21:42:26.941Z,22.48
2019-04-16T21:44:55.401Z,23.42
2019-04-16T21:47:24.587Z,23.80
2019-04-16T21:49:54.346Z,22.82
2019-04-16T21:52:23.831Z,23.10
2019-04-16T21:54:53.205Z,23.10
2019-04-16T21:57:21.692Z,24.37
2019-04-16T21:59:56.704Z,25.17
2019-04-16T22:02:25.109Z,24.52
2019-04-16T22:04:53.627Z,24.80
2019-04-16T22:07:24.738Z,24.60
2019-04-16T22:09:52.562Z,26.70
2019-04-16T22:12:21.476Z,26.40
2019-04-16T22:14:51.022Z,25.97
2019-04-16T22:17:20.411Z,25.32
2019-04-16T22:19:54.435Z,26.00
2019-04-16T22:22:19.114Z,27.15
2019-04-16T22:24:47.578Z,28.00
2019-04-16T22:27:16.100Z,28.57
2019-04-16T22:29:47.208Z,29.23
2019-04-16T22:32:15.015Z,27.02
2019-04-16T22:34:43.521Z,30.82
2019-04-16T22:37:12.104Z,25.88
2019-04-16T22:39:51.849Z,29.32
2019-04-16T22:42:31.338Z,30.37
2019-04-16T22:45:10.460Z,30.37
2019-04-16T22:47:40.629Z,32.35
2019-04-16T22:50:16.028Z,33.35
2019-04-16T22:52:41.639Z,30.95
2019-04-16T22:55:09.990Z,32.98
2019-04-16T22:57:38.574Z,32.15
2019-04-16T23:00:12.827Z,35.80
2019-04-16T23:02:39.412Z,34.43
2019-04-16T23:05:07.898Z,34.60
2019-04-16T23:07:36.680Z,36.90
2019-04-16T23:10:06.686Z,36.83
2019-04-16T23:12:35.232Z,34.92
2019-04-16T23:15:05.617Z,34.53
2019-04-16T23:17:34.118Z,36.38
2019-04-16T23:20:02.600Z,32.03
2019-04-16T23:22:31.123Z,35.15
2019-04-16T23:24:59.625Z,33.73
2019-04-16T23:27:28.146Z,31.52
2019-04-16T23:29:56.669Z,33.65
2019-04-16T23:32:28.626Z,38.83
2019-04-16T23:34:55.970Z,38.60
2019-04-16T23:37:24.468Z,39.80
2019-04-16T23:39:53.054Z,39.42
2019-04-16T23:42:21.592Z,34.35
2019-04-16T23:44:54.694Z,39.33
2019-04-16T23:47:28.455Z,40.63
2019-04-16T23:50:10.266Z,40.65
2019-04-16T23:52:40.400Z,38.33
2019-04-16T23:55:17.548Z,42.00
2019-04-16T23:58:03.633Z,39.42
